sensor_id;sensor_type;location;lat;lon;timestamp;temperature;humidity
31687;DHT22;18285;51.330;4.946;2023-10-08T00:10:13;24.80;50.30
31687;DHT22;18285;51.330;4.946;2023-10-08T00:34:24;24.80;50.10
31687;DHT22;18285;51.330;4.946;2023-10-08T00:58:35;24.70;49.90
31687;DHT22;18285;51.330;4.946;2023-10-08T01:22:46;24.70;49.70
31687;DHT22;18285;51.330;4.946;2023-10-08T01:46:57;24.70;49.40
31687;DHT22;18285;51.330;4.946;2023-10-08T02:11:08;24.70;49.20
31687;DHT22;18285;51.330;4.946;2023-10-08T02:35:20;24.60;48.80
31687;DHT22;18285;51.330;4.946;2023-10-08T02:59:33;24.60;48.70
31687;DHT22;18285;51.330;4.946;2023-10-08T03:23:54;24.60;48.50
31687;DHT22;18285;51.330;4.946;2023-10-08T03:48:08;24.60;48.20
31687;DHT22;18285;51.330;4.946;2023-10-08T04:12:25;24.60;48.30
31687;DHT22;18285;51.330;4.946;2023-10-08T04:36:37;24.60;48.20
31687;DHT22;18285;51.330;4.946;2023-10-08T05:00:48;24.60;48.20
31687;DHT22;18285;51.330;4.946;2023-10-08T05:25:10;24.60;48.10
31687;DHT22;18285;51.330;4.946;2023-10-08T05:49:21;24.60;48.10
31687;DHT22;18285;51.330;4.946;2023-10-08T06:13:41;24.50;48.00
31687;DHT22;18285;51.330;4.946;2023-10-08T06:37:57;24.50;48.00
31687;DHT22;18285;51.330;4.946;2023-10-08T07:02:10;24.50;47.80
31687;DHT22;18285;51.330;4.946;2023-10-08T07:26:25;24.50;47.90
31687;DHT22;18285;51.330;4.946;2023-10-08T07:50:41;24.50;47.40
31687;DHT22;18285;51.330;4.946;2023-10-08T08:14:52;24.40;48.60
31687;DHT22;18285;51.330;4.946;2023-10-08T08:39:03;24.50;48.60
31687;DHT22;18285;51.330;4.946;2023-10-08T09:03:15;24.60;48.90
31687;DHT22;18285;51.330;4.946;2023-10-08T09:27:26;24.70;49.30
31687;DHT22;18285;51.330;4.946;2023-10-08T09:51:37;24.70;50.20
31687;DHT22;18285;51.330;4.946;2023-10-08T10:15:50;24.60;51.70
31687;DHT22;18285;51.330;4.946;2023-10-08T10:40:02;24.50;52.90
31687;DHT22;18285;51.330;4.946;2023-10-08T11:04:20;24.60;53.50
31687;DHT22;18285;51.330;4.946;2023-10-08T11:28:39;24.70;53.90
31687;DHT22;18285;51.330;4.946;2023-10-08T11:52:53;24.70;54.30
31687;DHT22;18285;51.330;4.946;2023-10-08T12:17:04;24.70;53.90
31687;DHT22;18285;51.330;4.946;2023-10-08T12:41:21;24.70;53.30
31687;DHT22;18285;51.330;4.946;2023-10-08T13:05:32;24.70;53.10
31687;DHT22;18285;51.330;4.946;2023-10-08T13:29:44;24.80;52.90
31687;DHT22;18285;51.330;4.946;2023-10-08T13:53:57;24.90;52.70
31687;DHT22;18285;51.330;4.946;2023-10-08T14:18:11;24.80;52.90
31687;DHT22;18285;51.330;4.946;2023-10-08T14:42:27;24.90;53.30
31687;DHT22;18285;51.330;4.946;2023-10-08T15:06:57;24.90;53.20
31687;DHT22;18285;51.330;4.946;2023-10-08T15:31:08;25.00;52.70
31687;DHT22;18285;51.330;4.946;2023-10-08T15:55:18;25.00;52.90
31687;DHT22;18285;51.330;4.946;2023-10-08T16:19:32;24.90;52.90
31687;DHT22;18285;51.330;4.946;2023-10-08T16:43:42;24.90;52.80
31687;DHT22;18285;51.330;4.946;2023-10-08T17:07:53;25.00;53.50
31687;DHT22;18285;51.330;4.946;2023-10-08T17:32:06;24.70;54.90
31687;DHT22;18285;51.330;4.946;2023-10-08T17:56:17;24.60;54.20
31687;DHT22;18285;51.330;4.946;2023-10-08T18:20:27;24.50;54.40
31687;DHT22;18285;51.330;4.946;2023-10-08T18:44:45;24.30;54.70
31687;DHT22;18285;51.330;4.946;2023-10-08T19:08:56;24.10;54.50
31687;DHT22;18285;51.330;4.946;2023-10-08T19:33:09;24.00;55.00
31687;DHT22;18285;51.330;4.946;2023-10-08T19:57:21;24.30;54.70
31687;DHT22;18285;51.330;4.946;2023-10-08T20:21:31;24.50;54.30
31687;DHT22;18285;51.330;4.946;2023-10-08T20:45:43;24.60;55.20
31687;DHT22;18285;51.330;4.946;2023-10-08T21:09:53;24.60;55.30
31687;DHT22;18285;51.330;4.946;2023-10-08T21:34:04;24.60;55.30
31687;DHT22;18285;51.330;4.946;2023-10-08T21:58:15;24.60;55.20
31687;DHT22;18285;51.330;4.946;2023-10-08T22:22:26;24.70;55.20
31687;DHT22;18285;51.330;4.946;2023-10-08T22:46:37;24.70;54.90
31687;DHT22;18285;51.330;4.946;2023-10-08T23:10:52;24.70;54.80
31687;DHT22;18285;51.330;4.946;2023-10-08T23:35:02;24.70;54.60
31687;DHT22;18285;51.330;4.946;2023-10-08T23:59:13;24.70;54.20
